createdAt,value
2023-04-11T00:01:04.853Z,46
2023-04-11T00:16:05.849Z,40
2023-04-11T00:31:05.681Z,32
2023-04-11T00:46:05.449Z,36
2023-04-11T01:01:05.031Z,47
2023-04-11T01:16:05.023Z,46
2023-04-11T01:31:05.650Z,47
2023-04-11T01:46:05.174Z,46
2023-04-11T02:01:05.583Z,45
2023-04-11T02:16:04.843Z,41
2023-04-11T02:31:05.968Z,41
2023-04-11T02:46:12.398Z,36
2023-04-11T03:01:04.929Z,41
2023-04-11T03:16:05.416Z,37
2023-04-11T03:31:04.867Z,42
2023-04-11T03:46:05.052Z,44
2023-04-11T04:01:05.657Z,44
2023-04-11T04:16:05.195Z,40
2023-04-11T04:31:05.166Z,38
2023-04-11T04:46:04.989Z,38
2023-04-11T05:01:05.140Z,30
2023-04-11T05:16:04.896Z,31
2023-04-11T05:31:05.244Z,35
2023-04-11T05:46:05.534Z,36
2023-04-11T06:01:06.382Z,31
2023-04-11T06:16:06.006Z,21
2023-04-11T06:31:05.250Z,21
2023-04-11T06:46:05.456Z,24
2023-04-11T07:01:05.569Z,23
2023-04-11T07:16:05.355Z,20
2023-04-11T07:31:05.346Z,16
2023-04-11T07:46:05.874Z,12
2023-04-11T08:01:05.987Z,11
2023-04-11T08:16:05.579Z,9
2023-04-11T08:31:04.855Z,7
2023-04-11T08:46:06.102Z,7
2023-04-11T09:01:05.496Z,5
2023-04-11T09:16:05.410Z,5
2023-04-11T09:31:04.921Z,5
2023-04-11T09:46:06.046Z,6
2023-04-11T10:01:05.704Z,5
2023-04-11T10:16:04.993Z,6
2023-04-11T10:31:05.115Z,5
2023-04-11T10:46:05.965Z,5
2023-04-11T11:01:05.819Z,6
2023-04-11T11:16:05.542Z,6
2023-04-11T11:31:04.882Z,6
2023-04-11T11:46:06.344Z,7
2023-04-11T12:01:05.414Z,5
2023-04-11T12:16:05.365Z,6
2023-04-11T12:31:05.184Z,6
2023-04-11T12:46:05.879Z,6
2023-04-11T13:01:05.468Z,7
2023-04-11T13:16:04.875Z,7
2023-04-11T13:31:05.659Z,8
2023-04-11T13:46:05.389Z,7
2023-04-11T14:01:05.062Z,10
2023-04-11T14:16:09.109Z,8
2023-04-11T14:31:05.278Z,12
2023-04-11T14:46:05.721Z,7
2023-04-11T15:01:05.339Z,14
2023-04-11T15:16:05.489Z,15
2023-04-11T15:31:05.106Z,17
2023-04-11T15:46:05.263Z,20
2023-04-11T16:01:04.989Z,21
2023-04-11T16:16:04.822Z,21
2023-04-11T16:31:05.752Z,13
2023-04-11T16:46:05.628Z,25
2023-04-11T17:01:05.460Z,17
2023-04-11T17:16:05.265Z,17
2023-04-11T17:31:04.970Z,12
2023-04-11T17:46:05.733Z,8
2023-04-11T18:01:05.133Z,9
2023-04-11T18:16:05.468Z,9
2023-04-11T18:31:05.536Z,8
2023-04-11T18:46:05.610Z,6
2023-04-11T19:01:14.525Z,12
2023-04-11T19:16:04.799Z,12
2023-04-11T19:31:04.697Z,16
2023-04-11T19:46:05.620Z,20
2023-04-11T20:01:04.885Z,18
2023-04-11T20:16:05.459Z,22
2023-04-11T20:31:05.386Z,17
2023-04-11T20:46:04.809Z,18
2023-04-11T21:01:05.595Z,15
2023-04-11T21:16:05.727Z,11
2023-04-11T21:31:05.511Z,10
2023-04-11T21:46:04.989Z,10
2023-04-11T22:01:07.213Z,8
2023-04-11T22:16:05.846Z,12
2023-04-11T22:31:04.761Z,12
2023-04-11T22:46:06.263Z,10
2023-04-11T23:01:05.831Z,7
2023-04-11T23:16:04.773Z,9
2023-04-11T23:31:05.964Z,12
2023-04-11T23:46:05.701Z,10
